Time;durP1;ratioP1;P1;durP2;ratioP2;P2;SDS_P1;SDS_P2;PMS_P1;PMS_P2;Temp;Humidity;BMP_temperature;BMP_pressure;BME280_temperature;BME280_humidity;BME280_pressure;Samples;Min_cycle;Max_cycle;Signal;HPM_P1;HPM_P2
2021/07/18 04:02:12;;;;;;;;;;;19.50;99.90;;;;;;5;36048863;41300932;-90
2021/07/18 04:05:32;;;;;;;;;;;19.40;99.90;;;;;;5;36022705;41280520;-90
2021/07/18 04:08:46;;;;;;;;;;;19.40;99.90;;;;;;5;36021088;41273399;-88
2021/07/18 04:12:05;;;;;;;;;;;19.40;99.90;;;;;;5;36017434;42024080;-90
2021/07/18 04:15:25;;;;;;;;;;;19.40;99.90;;;;;;5;36018773;41271685;-89
2021/07/18 04:18:45;;;;;;;;;;;19.40;99.90;;;;;;5;36019956;41272152;-88
2021/07/18 04:21:59;;;;;;;;;;;19.40;99.90;;;;;;5;36019462;41272656;-87
2021/07/18 04:25:16;;;;;;;;;;;19.40;99.90;;;;;;5;36017881;41272095;-90
2021/07/18 04:28:35;;;;;;;;;;;19.40;99.90;;;;;;5;36018422;41271417;-89
2021/07/18 04:31:55;;;;;;;;;;;19.50;99.90;;;;;;5;36019456;41271432;-88
2021/07/18 04:35:09;;;;;;;;;;;19.50;99.90;;;;;;5;36020997;41272297;-89
2021/07/18 04:38:26;;;;;;;;;;;19.50;99.90;;;;;;5;36019620;41271621;-89
2021/07/18 04:41:46;;;;;;;;;;;19.40;99.90;;;;;;5;36018862;41271309;-89
2021/07/18 04:45:07;;;;;;;;;;;19.50;99.90;;;;;;5;36020707;42022333;-89
2021/07/18 04:48:22;;;;;;;;;;;19.50;99.90;;;;;;5;36019454;41271060;-89
2021/07/18 04:51:39;;;;;;;;;;;19.50;99.90;;;;;;5;36018607;41270795;-89
2021/07/18 04:54:58;;;;;;;;;;;19.50;99.90;;;;;;5;36019225;41272255;-89
2021/07/18 04:58:18;;;;;;;;;;;19.50;99.90;;;;;;5;36019394;41271782;-89
2021/07/18 05:01:32;;;;;;;;;;;19.60;99.90;;;;;;5;36018141;41272602;-89
2021/07/18 05:04:49;;;;;;;;;;;19.60;99.90;;;;;;5;36018717;41271910;-89
2021/07/18 05:08:09;;;;;;;;;;;19.70;99.90;;;;;;5;36018003;41272523;-89
2021/07/18 05:11:28;;;;;;;;;;;19.70;99.90;;;;;;5;36019237;41271177;-89
2021/07/18 05:14:45;;;;;;;;;;;19.70;99.90;;;;;;5;36019791;41272791;-89
2021/07/18 05:18:11;;;;;;;;;;;19.80;99.90;;;;;;5;36019271;42023317;-89
2021/07/18 05:21:31;;;;;;;;;;;19.90;99.90;;;;;;5;36018801;41272187;-89
2021/07/18 05:24:52;;;;;;;;;;;20.00;99.90;;;;;;5;36018127;41271243;-89
2021/07/18 05:28:07;;;;;;;;;;;20.10;99.90;;;;;;5;36019789;41272363;-89
2021/07/18 05:31:25;;;;;;;;;;;20.10;99.90;;;;;;5;36018573;41273065;-89
2021/07/18 05:34:44;;;;;;;;;;;20.10;99.90;;;;;;5;36018655;41272282;-88
2021/07/18 05:38:04;;;;;;;;;;;20.10;99.90;;;;;;5;36019096;41272262;-89
2021/07/18 05:41:18;;;;;;;;;;;20.20;99.90;;;;;;5;36021856;41272946;-89
2021/07/18 05:44:35;;;;;;;;;;;20.20;99.90;;;;;;5;36017771;41271974;-89
2021/07/18 05:47:54;;;;;;;;;;;20.30;99.90;;;;;;5;36017233;41272368;-89
2021/07/18 05:51:15;;;;;;;;;;;20.30;99.90;;;;;;5;36019835;42021215;-89
2021/07/18 05:54:30;;;;;;;;;;;20.30;99.90;;;;;;5;36018069;41272394;-89
2021/07/18 05:57:47;;;;;;;;;;;20.30;99.90;;;;;;5;36017622;41272310;-88
2021/07/18 06:01:06;;;;;;;;;;;20.30;99.90;;;;;;5;36018315;41271084;-89
2021/07/18 06:04:27;;;;;;;;;;;20.40;99.90;;;;;;5;36017860;41272395;-89
2021/07/18 06:07:42;;;;;;;;;;;20.60;99.90;;;;;;5;36018896;41272225;-89
2021/07/18 06:10:59;;;;;;;;;;;20.70;99.90;;;;;;5;36019778;41272147;-89
2021/07/18 06:14:18;;;;;;;;;;;20.80;99.90;;;;;;5;36018700;41273378;-89
2021/07/18 06:17:38;;;;;;;;;;;21.00;99.90;;;;;;5;36018386;41271733;-89
2021/07/18 06:20:52;;;;;;;;;;;21.00;99.90;;;;;;5;36018350;41271771;-89
2021/07/18 06:24:12;;;;;;;;;;;21.10;99.90;;;;;;5;36017879;42022746;-90
2021/07/18 06:27:31;;;;;;;;;;;21.10;99.90;;;;;;5;36019264;41272328;-89
2021/07/18 06:30:54;;;;;;;;;;;21.20;99.90;;;;;;5;36021058;41272743;-90
2021/07/18 06:34:08;;;;;;;;;;;21.30;99.90;;;;;;5;36017269;41272286;-90
2021/07/18 06:37:26;;;;;;;;;;;21.40;99.90;;;;;;5;36017979;41274597;-90
2021/07/18 06:40:45;;;;;;;;;;;21.40;99.90;;;;;;5;36018625;41273941;-90
2021/07/18 06:44:05;;;;;;;;;;;21.40;99.90;;;;;;5;36019389;41272609;-90
2021/07/18 06:47:19;;;;;;;;;;;21.60;99.90;;;;;;5;36020371;41273180;-90
2021/07/18 06:50:36;;;;;;;;;;;21.70;99.90;;;;;;5;36021164;41273403;-90
2021/07/18 06:53:56;;;;;;;;;;;21.80;99.90;;;;;;5;36022951;41274159;-90
2021/07/18 06:57:17;;;;;;;;;;;21.90;99.90;;;;;;5;36017640;42017897;-90
2021/07/18 07:00:31;;;;;;;;;;;22.00;99.90;;;;;;5;36020518;41273049;-90
2021/07/18 07:03:48;;;;;;;;;;;21.90;99.90;;;;;;5;36018991;41272985;-90
2021/07/18 07:07:08;;;;;;;;;;;21.90;99.90;;;;;;5;36019439;41272015;-89
2021/07/18 07:10:27;;;;;;;;;;;22.00;99.90;;;;;;5;36017490;41269945;-88
2021/07/18 07:13:41;;;;;;;;;;;22.10;99.90;;;;;;5;36018075;41270907;-88
2021/07/18 07:16:58;;;;;;;;;;;22.20;99.90;;;;;;5;36018272;41272125;-88
2021/07/18 07:20:18;;;;;;;;;;;22.30;99.90;;;;;;5;36018390;41273746;-88
2021/07/18 07:23:37;;;;;;;;;;;22.50;99.90;;;;;;5;36019870;41273622;-87
2021/07/18 07:26:52;;;;;;;;;;;22.70;99.90;;;;;;5;36019177;41272118;-89
2021/07/18 07:30:12;;;;;;;;;;;22.80;99.90;;;;;;5;36018747;42022493;-89
2021/07/18 07:33:33;;;;;;;;;;;23.00;99.90;;;;;;5;36019400;41272519;-89
2021/07/18 07:36:52;;;;;;;;;;;23.10;99.90;;;;;;5;36018072;41272112;-89
2021/07/18 07:40:07;;;;;;;;;;;23.30;99.90;;;;;;5;36017918;41272618;-90
2021/07/18 07:43:25;;;;;;;;;;;23.50;99.20;;;;;;5;36018676;41271405;-90
2021/07/18 07:46:45;;;;;;;;;;;23.70;98.80;;;;;;5;36017017;41270403;-90
2021/07/18 07:50:05;;;;;;;;;;;23.70;98.00;;;;;;5;36019689;41272012;-89
2021/07/18 07:53:19;;;;;;;;;;;23.60;98.20;;;;;;5;36021003;41271627;-89
2021/07/18 07:56:37;;;;;;;;;;;23.40;99.00;;;;;;5;36015939;41272455;-89
2021/07/18 07:59:56;;;;;;;;;;;23.40;99.10;;;;;;5;36018754;41271632;-89
2021/07/18 08:03:17;;;;;;;;;;;23.70;99.50;;;;;;5;36018726;42021071;-90
2021/07/18 08:06:31;;;;;;;;;;;23.80;98.30;;;;;;5;36018003;41270740;-89
2021/07/18 08:09:48;;;;;;;;;;;23.90;98.40;;;;;;5;36017880;41272287;-89
2021/07/18 08:13:08;;;;;;;;;;;24.10;97.30;;;;;;5;36018538;41272459;-89
2021/07/18 08:16:27;;;;;;;;;;;24.50;97.00;;;;;;5;36018598;41271836;-89
2021/07/18 08:19:42;;;;;;;;;;;24.70;96.00;;;;;;5;36019204;41272325;-89
2021/07/18 08:22:59;;;;;;;;;;;24.80;95.90;;;;;;5;36019112;41272147;-89
2021/07/18 08:26:20;;;;;;;;;;;24.90;95.30;;;;;;5;36018389;41271914;-89
2021/07/18 08:29:39;;;;;;;;;;;25.10;94.20;;;;;;5;36018907;41272870;-89
2021/07/18 08:32:53;;;;;;;;;;;25.50;93.80;;;;;;5;36018338;41271430;-89
2021/07/18 08:36:12;;;;;;;;;;;25.80;93.00;;;;;;5;36017585;42023029;-89
2021/07/18 08:39:31;;;;;;;;;;;26.30;92.70;;;;;;5;36017942;41271426;-90
2021/07/18 08:42:51;;;;;;;;;;;26.80;91.20;;;;;;5;36018840;41272400;-90
2021/07/18 08:46:05;;;;;;;;;;;26.80;90.00;;;;;;5;36018841;41271664;-90
2021/07/18 08:49:23;;;;;;;;;;;26.80;90.30;;;;;;5;36017948;41270698;-89
2021/07/18 08:52:51;;;;;;;;;;;27.20;90.00;;;;;;5;36018147;41271153;-90
2021/07/18 08:56:10;;;;;;;;;;;27.40;86.30;;;;;;5;36018825;41271709;-90
2021/07/18 08:59:25;;;;;;;;;;;26.80;86.70;;;;;;5;36020120;41270583;-90
2021/07/18 09:02:42;;;;;;;;;;;27.10;87.20;;;;;;5;36018607;41273791;-90
2021/07/18 09:06:05;;;;;;;;;;;27.30;85.20;;;;;;5;36019885;41272391;-89
2021/07/18 09:09:29;;;;;;;;;;;26.70;86.20;;;;;;5;36018303;42020705;-90
2021/07/18 09:13:00;;;;;;;;;;;26.00;88.30;;;;;;5;36018248;41271842;-89
2021/07/18 09:16:23;;;;;;;;;;;25.70;88.40;;;;;;5;36015885;41270342;-90
2021/07/18 09:19:43;;;;;;;;;;;25.60;88.80;;;;;;5;36013187;41266576;-90
2021/07/18 09:23:11;;;;;;;;;;;25.30;89.70;;;;;;5;36017776;41269028;-90
2021/07/18 09:30:22;;;;;;;;;;;25.50;90.50;;;;;;5;36013250;41266511;-89
2021/07/18 09:34:16;;;;;;;;;;;25.20;89.80;;;;;;5;36016414;41266817;-89
2021/07/18 09:37:39;;;;;;;;;;;24.80;90.20;;;;;;5;36019243;41271473;-89
2021/07/18 09:40:59;;;;;;;;;;;24.90;90.70;;;;;;5;36019364;41271303;-89
2021/07/18 09:44:18;;;;;;;;;;;24.80;90.40;;;;;;5;36018717;42022126;-89
2021/07/18 09:47:54;;;;;;;;;;;24.60;90.70;;;;;;5;36017533;41273010;-88
2021/07/18 09:51:14;;;;;;;;;;;24.30;91.50;;;;;;5;36018111;41271516;-89
2021/07/18 09:54:30;;;;;;;;;;;24.20;92.00;;;;;;5;36020384;41272871;-89
2021/07/18 09:57:52;;;;;;;;;;;24.10;92.10;;;;;;5;36018287;41271461;-89
2021/07/18 10:01:16;;;;;;;;;;;24.00;92.20;;;;;;5;36017619;41271020;-89
2021/07/18 10:04:39;;;;;;;;;;;23.90;92.50;;;;;;5;36017026;41270705;-89
2021/07/18 10:08:03;;;;;;;;;;;24.00;92.60;;;;;;5;36017277;41269890;-92
2021/07/18 10:11:21;;;;;;;;;;;24.00;93.20;;;;;;5;36016566;41270694;-92
2021/07/18 10:14:41;;;;;;;;;;;24.20;93.50;;;;;;5;36016932;41269752;-93
2021/07/18 10:18:03;;;;;;;;;;;24.60;93.20;;;;;;5;36017044;42020812;-92
2021/07/18 10:21:19;;;;;;;;;;;24.90;92.50;;;;;;5;36018040;41271379;-92
2021/07/18 10:24:37;;;;;;;;;;;25.20;92.10;;;;;;5;36017498;41270709;-92
2021/07/18 10:27:58;;;;;;;;;;;25.40;90.80;;;;;;5;36016632;41270702;-91
2021/07/18 10:31:23;;;;;;;;;;;25.60;90.20;;;;;;5;36019311;41271240;-91
2021/07/18 10:34:37;;;;;;;;;;;25.70;90.00;;;;;;5;36018744;41272308;-91
2021/07/18 10:37:55;;;;;;;;;;;25.80;90.00;;;;;;5;36015733;41271551;-90
2021/07/18 10:41:15;;;;;;;;;;;25.70;89.80;;;;;;5;36016429;41271135;-92
2021/07/18 10:44:43;;;;;;;;;;;25.50;89.80;;;;;;5;36017288;41270419;-90
2021/07/18 10:48:03;;;;;;;;;;;25.40;90.40;;;;;;5;36018830;41270459;-91
2021/07/18 10:51:40;;;;;;;;;;;25.30;90.60;;;;;;5;36016733;42022121;-91
2021/07/18 10:55:00;;;;;;;;;;;25.10;90.00;;;;;;5;36018271;41271585;-92
2021/07/18 10:58:38;;;;;;;;;;;24.80;90.90;;;;;;5;36017898;41270602;-93
2021/07/18 11:02:04;;;;;;;;;;;24.70;91.40;;;;;;5;36018223;41271007;-91
2021/07/18 11:05:36;;;;;;;;;;;24.40;91.30;;;;;;5;36014372;41269771;-89
2021/07/18 11:09:11;;;;;;;;;;;24.20;91.90;;;;;;5;36015693;41269028;-91
2021/07/18 11:12:32;;;;;;;;;;;24.00;92.40;;;;;;5;36016016;41268931;-90
2021/07/18 11:15:46;;;;;;;;;;;23.90;92.70;;;;;;5;36013847;41266851;-90
2021/07/18 11:19:03;;;;;;;;;;;23.70;92.80;;;;;;5;36015149;41267249;-92
2021/07/18 11:23:02;;;;;;;;;;;23.70;92.50;;;;;;5;36013698;41267759;-91
2021/07/18 11:26:23;;;;;;;;;;;23.50;93.60;;;;;;5;36014984;42018369;-88
2021/07/18 11:29:37;;;;;;;;;;;23.50;93.60;;;;;;5;36014513;41267335;-91
2021/07/18 11:32:54;;;;;;;;;;;23.20;94.70;;;;;;5;36014435;41266803;-91
2021/07/18 11:36:14;;;;;;;;;;;22.70;96.40;;;;;;5;36014081;41267588;-90
2021/07/18 11:39:34;;;;;;;;;;;22.80;97.00;;;;;;5;36014643;41266641;-90
2021/07/18 11:42:48;;;;;;;;;;;23.00;96.70;;;;;;5;36014781;41266740;-90
2021/07/18 11:46:06;;;;;;;;;;;22.80;96.70;;;;;;5;36015531;41267228;-91
2021/07/18 11:49:26;;;;;;;;;;;22.90;96.70;;;;;;5;36014604;41267250;-88
2021/07/18 11:52:47;;;;;;;;;;;22.90;95.70;;;;;;5;36014811;41267623;-91
2021/07/18 11:56:01;;;;;;;;;;;22.90;96.70;;;;;;5;36014792;41267165;-90
2021/07/18 11:59:21;;;;;;;;;;;23.00;97.40;;;;;;5;36015032;42017456;-91
2021/07/18 12:02:41;;;;;;;;;;;22.90;98.00;;;;;;5;36015527;41267310;-90
2021/07/18 12:06:01;;;;;;;;;;;22.70;97.70;;;;;;5;36013866;41267023;-90
2021/07/18 12:09:15;;;;;;;;;;;22.70;98.20;;;;;;5;36015050;41267432;-91
2021/07/18 12:12:32;;;;;;;;;;;22.90;97.90;;;;;;5;36014524;41267106;-90
2021/07/18 12:15:56;;;;;;;;;;;22.90;97.50;;;;;;5;36015772;41267707;-90
2021/07/18 12:19:15;;;;;;;;;;;22.70;97.60;;;;;;5;36015755;41267228;-92
2021/07/18 12:22:29;;;;;;;;;;;22.70;97.80;;;;;;5;36014472;41267012;-88
2021/07/18 12:25:55;;;;;;;;;;;22.80;97.80;;;;;;5;36014482;41267023;-89
2021/07/18 12:29:15;;;;;;;;;;;22.90;97.10;;;;;;5;36014882;41267371;-91
2021/07/18 12:32:36;;;;;;;;;;;23.10;97.10;;;;;;5;36014710;42016841;-90
2021/07/18 12:36:19;;;;;;;;;;;23.10;97.10;;;;;;5;36015963;41267126;-89
2021/07/18 12:39:37;;;;;;;;;;;23.00;97.10;;;;;;5;36014976;41267365;-90
2021/07/18 12:42:58;;;;;;;;;;;23.10;97.60;;;;;;5;36014838;41266392;-90
2021/07/18 12:46:22;;;;;;;;;;;23.10;97.70;;;;;;5;36014322;41267038;-88
2021/07/18 12:49:36;;;;;;;;;;;23.30;97.40;;;;;;5;36014719;41267340;-85
2021/07/18 12:52:57;;;;;;;;;;;23.30;96.70;;;;;;5;36014319;41267130;-90
2021/07/18 12:56:16;;;;;;;;;;;23.20;97.80;;;;;;5;36014899;41266956;-91
2021/07/18 12:59:36;;;;;;;;;;;23.10;97.80;;;;;;5;36014266;41267629;-91
2021/07/18 13:02:50;;;;;;;;;;;23.00;97.40;;;;;;5;36015291;41267239;-91
2021/07/18 13:06:19;;;;;;;;;;;22.90;98.10;;;;;;5;36015583;42016588;-91
2021/07/18 13:09:39;;;;;;;;;;;22.70;98.40;;;;;;5;36014728;41266997;-89
2021/07/18 13:12:59;;;;;;;;;;;22.60;98.30;;;;;;5;36013509;41266867;-86
2021/07/18 13:16:13;;;;;;;;;;;22.20;99.40;;;;;;5;36014728;41266071;-92
2021/07/18 13:19:31;;;;;;;;;;;22.30;99.60;;;;;;5;36014193;41265839;-90
2021/07/18 13:22:51;;;;;;;;;;;22.20;99.70;;;;;;5;36014587;41267374;-87
2021/07/18 13:26:30;;;;;;;;;;;22.10;99.70;;;;;;5;36014140;41266191;-90
2021/07/18 13:29:45;;;;;;;;;;;22.20;99.90;;;;;;5;36015858;41266156;-90
2021/07/18 13:33:10;;;;;;;;;;;22.20;99.90;;;;;;5;36014025;41267740;-90
2021/07/18 13:36:29;;;;;;;;;;;22.20;99.90;;;;;;5;36014792;41266143;-89
2021/07/18 13:39:50;;;;;;;;;;;22.20;99.60;;;;;;5;36015803;42016230;-89
2021/07/18 13:43:07;;;;;;;;;;;22.30;99.90;;;;;;5;36016121;41267516;-89
2021/07/18 13:46:24;;;;;;;;;;;22.20;99.30;;;;;;5;36015106;41265984;-89
2021/07/18 13:49:44;;;;;;;;;;;22.30;99.60;;;;;;5;36014964;41268454;-90
2021/07/18 13:53:03;;;;;;;;;;;22.50;99.20;;;;;;5;36015126;41266691;-89
2021/07/18 13:56:17;;;;;;;;;;;22.80;99.00;;;;;;5;36014491;41267003;-91
2021/07/18 13:59:37;;;;;;;;;;;23.00;98.30;;;;;;5;36014975;41268837;-91
2021/07/18 14:02:56;;;;;;;;;;;23.20;97.20;;;;;;5;36015266;41266456;-91
2021/07/18 14:06:16;;;;;;;;;;;23.60;97.40;;;;;;5;36014470;41266525;-92
2021/07/18 14:09:30;;;;;;;;;;;24.10;96.50;;;;;;5;36016009;41266387;-90
2021/07/18 14:12:48;;;;;;;;;;;24.60;95.30;;;;;;5;36014159;42018327;-90
2021/07/18 14:16:08;;;;;;;;;;;25.20;95.00;;;;;;5;36015749;41267746;-90
2021/07/18 14:19:27;;;;;;;;;;;25.80;93.60;;;;;;5;36014180;41267621;-91
2021/07/18 14:22:42;;;;;;;;;;;26.00;92.90;;;;;;5;36014661;41266536;-89
2021/07/18 14:26:00;;;;;;;;;;;26.30;92.60;;;;;;5;36013734;41267100;-89
2021/07/18 14:29:19;;;;;;;;;;;26.20;91.80;;;;;;5;36015269;41267553;-90
2021/07/18 14:32:39;;;;;;;;;;;26.10;92.60;;;;;;5;36014675;41266657;-90
2021/07/18 14:35:53;;;;;;;;;;;26.10;92.60;;;;;;5;36014154;41267240;-89
2021/07/18 14:39:10;;;;;;;;;;;26.10;92.00;;;;;;5;36015431;41267039;-90
2021/07/18 14:42:30;;;;;;;;;;;26.30;91.40;;;;;;5;36015126;41267989;-88
2021/07/18 14:45:50;;;;;;;;;;;26.30;90.90;;;;;;5;36014753;42016437;-89
2021/07/18 14:49:05;;;;;;;;;;;25.90;91.20;;;;;;5;36014844;41266664;-91
2021/07/18 14:52:22;;;;;;;;;;;25.90;92.10;;;;;;5;36015054;41266368;-90
2021/07/18 14:55:41;;;;;;;;;;;25.60;92.40;;;;;;5;36014093;41268151;-90
2021/07/18 14:59:01;;;;;;;;;;;25.50;93.00;;;;;;5;36014031;41266997;-90
2021/07/18 15:02:15;;;;;;;;;;;25.30;92.40;;;;;;5;36014854;41269799;-90
2021/07/18 15:05:32;;;;;;;;;;;25.30;92.70;;;;;;5;36014800;41269064;-90
2021/07/18 15:08:51;;;;;;;;;;;25.30;93.10;;;;;;5;36015248;41267811;-90
2021/07/18 15:12:11;;;;;;;;;;;25.30;93.50;;;;;;5;36014263;41268277;-90
2021/07/18 15:15:26;;;;;;;;;;;25.50;93.50;;;;;;5;36015617;41268512;-90
2021/07/18 15:18:45;;;;;;;;;;;25.50;93.00;;;;;;5;36014177;42017762;-90
2021/07/18 15:22:05;;;;;;;;;;;25.60;93.30;;;;;;5;36015183;41267383;-90
2021/07/18 15:25:24;;;;;;;;;;;25.70;93.40;;;;;;5;36013952;41267232;-92
2021/07/18 15:28:38;;;;;;;;;;;25.70;93.00;;;;;;5;36014386;41267768;-91
2021/07/18 15:31:55;;;;;;;;;;;25.50;93.00;;;;;;5;36013848;41267036;-90
2021/07/18 15:35:15;;;;;;;;;;;25.70;92.30;;;;;;5;36015169;41267543;-89
2021/07/18 15:38:34;;;;;;;;;;;25.90;92.30;;;;;;5;36015269;41266441;-90
2021/07/18 15:41:48;;;;;;;;;;;26.00;92.20;;;;;;5;36015226;41267774;-89
2021/07/18 15:45:09;;;;;;;;;;;25.90;91.70;;;;;;5;36014454;41266911;-89
2021/07/18 15:48:29;;;;;;;;;;;25.60;92.40;;;;;;5;36015718;41266489;-91
2021/07/18 15:51:50;;;;;;;;;;;25.60;92.80;;;;;;5;36013573;42016877;-90
2021/07/18 15:55:07;;;;;;;;;;;25.60;93.30;;;;;;5;36015674;41267426;-88
2021/07/18 15:58:25;;;;;;;;;;;25.70;92.50;;;;;;5;36013597;41268316;-90
2021/07/18 16:01:44;;;;;;;;;;;25.70;91.90;;;;;;5;36015512;41267282;-92
2021/07/18 16:05:04;;;;;;;;;;;25.80;92.40;;;;;;5;36014341;41266971;-89
2021/07/18 16:08:18;;;;;;;;;;;26.00;91.60;;;;;;5;36015037;41267210;-90
2021/07/18 16:11:36;;;;;;;;;;;26.00;92.00;;;;;;5;36014872;41266118;-89
2021/07/18 16:14:56;;;;;;;;;;;26.00;91.30;;;;;;5;36016012;41266350;-91
2021/07/18 16:18:15;;;;;;;;;;;26.20;91.80;;;;;;5;36014817;41267048;-89
2021/07/18 16:21:31;;;;;;;;;;;26.20;91.50;;;;;;5;36015607;41267255;-90
2021/07/18 16:24:50;;;;;;;;;;;26.30;91.70;;;;;;5;36014273;42017183;-89
2021/07/18 16:28:10;;;;;;;;;;;26.30;92.00;;;;;;5;36014148;41267334;-91
2021/07/18 16:31:29;;;;;;;;;;;26.30;91.10;;;;;;5;36014380;41267525;-88
2021/07/18 16:34:44;;;;;;;;;;;26.20;91.50;;;;;;5;36014937;41267484;-91
2021/07/18 16:38:01;;;;;;;;;;;26.40;91.40;;;;;;5;36014048;41266954;-90
2021/07/18 16:41:20;;;;;;;;;;;26.20;91.10;;;;;;5;36013709;41267795;-88
2021/07/18 16:44:45;;;;;;;;;;;26.00;91.10;;;;;;5;36013449;41267321;-91
2021/07/18 16:47:59;;;;;;;;;;;25.90;91.70;;;;;;5;36013762;41267331;-91
2021/07/18 16:51:16;;;;;;;;;;;25.70;91.60;;;;;;5;36014222;41267548;-90
2021/07/18 16:54:36;;;;;;;;;;;25.40;92.10;;;;;;5;36014667;41266361;-91
2021/07/18 16:57:57;;;;;;;;;;;25.30;92.60;;;;;;5;36013935;42015668;-90
2021/07/18 17:01:12;;;;;;;;;;;25.20;92.10;;;;;;5;36015231;41266204;-90
2021/07/18 17:04:29;;;;;;;;;;;25.10;92.70;;;;;;5;36015621;41266115;-90
2021/07/18 17:07:48;;;;;;;;;;;25.10;93.50;;;;;;5;36014211;41265968;-84
2021/07/18 17:11:08;;;;;;;;;;;25.00;93.00;;;;;;5;36014456;41266479;-88
2021/07/18 17:14:22;;;;;;;;;;;25.00;93.60;;;;;;5;36013770;41265575;-88
2021/07/18 17:17:39;;;;;;;;;;;24.90;93.40;;;;;;5;36015361;41265592;-90
2021/07/18 17:20:59;;;;;;;;;;;24.90;93.60;;;;;;5;36014788;41265726;-90
2021/07/18 17:24:18;;;;;;;;;;;25.00;94.00;;;;;;5;36014538;41265641;-89
2021/07/18 17:27:32;;;;;;;;;;;25.10;93.20;;;;;;5;36015062;41267132;-86
2021/07/18 17:30:51;;;;;;;;;;;25.20;93.80;;;;;;5;36013520;42016577;-88
2021/07/18 17:34:10;;;;;;;;;;;25.30;93.60;;;;;;5;36013536;41266606;-90
2021/07/18 17:37:30;;;;;;;;;;;25.40;93.10;;;;;;5;36014329;41266280;-90
2021/07/18 17:40:44;;;;;;;;;;;25.50;92.70;;;;;;5;36014142;41266253;-89
2021/07/18 17:44:01;;;;;;;;;;;25.50;93.20;;;;;;5;36013798;41266968;-89
2021/07/18 17:47:21;;;;;;;;;;;25.50;92.60;;;;;;5;36014934;41266982;-90
2021/07/18 17:50:40;;;;;;;;;;;25.30;93.20;;;;;;5;36015481;41268191;-90
2021/07/18 17:53:54;;;;;;;;;;;25.00;93.00;;;;;;5;36014576;41268161;-90
2021/07/18 17:57:12;;;;;;;;;;;24.90;93.80;;;;;;5;36015890;41268351;-89
2021/07/18 18:00:32;;;;;;;;;;;24.70;93.60;;;;;;5;36016505;41268000;-89
2021/07/18 18:03:53;;;;;;;;;;;24.60;94.20;;;;;;5;36014190;42017912;-90
2021/07/18 18:07:07;;;;;;;;;;;24.40;94.50;;;;;;5;36014956;41267315;-89
2021/07/18 18:10:24;;;;;;;;;;;24.00;95.40;;;;;;5;36014211;41266833;-90
2021/07/18 18:13:44;;;;;;;;;;;23.90;95.90;;;;;;5;36014804;41267200;-89
2021/07/18 18:17:04;;;;;;;;;;;23.70;96.50;;;;;;5;36016101;41267705;-90
2021/07/18 18:20:19;;;;;;;;;;;23.50;96.40;;;;;;5;36016790;41266858;-88
2021/07/18 18:23:36;;;;;;;;;;;23.40;97.20;;;;;;5;36014842;41267648;-91
2021/07/18 18:26:55;;;;;;;;;;;23.40;97.30;;;;;;5;36015438;41266809;-88
2021/07/18 18:30:16;;;;;;;;;;;23.40;97.40;;;;;;5;36013802;41267771;-88
2021/07/18 18:33:32;;;;;;;;;;;23.30;97.90;;;;;;5;36014431;41266482;-91
2021/07/18 18:36:50;;;;;;;;;;;23.10;97.90;;;;;;5;36014525;42016897;-92
2021/07/18 18:40:13;;;;;;;;;;;23.00;97.80;;;;;;5;36014648;41266512;-88
2021/07/18 18:43:32;;;;;;;;;;;22.80;98.20;;;;;;5;36014142;41267717;-91
2021/07/18 18:46:46;;;;;;;;;;;22.70;98.60;;;;;;5;36015081;41266224;-89
2021/07/18 18:50:04;;;;;;;;;;;22.50;99.00;;;;;;5;36014274;41266261;-89
2021/07/18 18:53:24;;;;;;;;;;;22.30;99.90;;;;;;5;36014573;41266187;-88
2021/07/18 18:56:44;;;;;;;;;;;22.10;99.90;;;;;;5;36014696;41266334;-89
2021/07/18 18:59:58;;;;;;;;;;;21.90;99.90;;;;;;5;36015329;41266616;-89
2021/07/18 19:03:16;;;;;;;;;;;21.80;99.90;;;;;;5;36013991;41268961;-90
2021/07/18 19:06:36;;;;;;;;;;;21.60;99.90;;;;;;5;36014164;41266717;-90
2021/07/18 19:09:57;;;;;;;;;;;21.30;99.90;;;;;;5;36014591;42017124;-89
2021/07/18 19:13:11;;;;;;;;;;;21.20;99.90;;;;;;5;36015456;41266425;-88
2021/07/18 19:16:28;;;;;;;;;;;21.10;99.90;;;;;;5;36014909;41266878;-89
2021/07/18 19:19:48;;;;;;;;;;;21.00;99.90;;;;;;5;36014557;41267722;-88
2021/07/18 19:23:07;;;;;;;;;;;20.90;99.90;;;;;;5;36013557;41266948;-90
2021/07/18 19:26:22;;;;;;;;;;;20.60;99.90;;;;;;5;36016996;41266825;-88
2021/07/18 19:29:39;;;;;;;;;;;20.60;99.90;;;;;;5;36014089;41267120;-88
2021/07/18 19:32:58;;;;;;;;;;;20.40;99.90;;;;;;5;36014975;41266529;-89
2021/07/18 19:36:19;;;;;;;;;;;20.30;99.90;;;;;;5;36015644;41267250;-89
2021/07/18 19:39:33;;;;;;;;;;;20.20;99.90;;;;;;5;36014014;41267041;-90
2021/07/18 19:42:52;;;;;;;;;;;20.10;99.90;;;;;;5;36014594;42016301;-89
2021/07/18 19:46:12;;;;;;;;;;;19.90;99.90;;;;;;5;36014693;41267864;-89
2021/07/18 19:49:31;;;;;;;;;;;19.90;99.90;;;;;;5;36014009;41268707;-87
2021/07/18 19:52:45;;;;;;;;;;;19.70;99.90;;;;;;5;36014541;41266669;-90
2021/07/18 19:56:03;;;;;;;;;;;19.70;99.90;;;;;;5;36014169;41267068;-90
2021/07/18 19:59:23;;;;;;;;;;;19.60;99.90;;;;;;5;36014256;41267487;-88
2021/07/18 20:02:43;;;;;;;;;;;19.40;99.90;;;;;;5;36014210;41267606;-90
2021/07/18 20:05:57;;;;;;;;;;;19.40;99.90;;;;;;5;36013970;41267599;-88
2021/07/18 20:09:14;;;;;;;;;;;19.30;99.90;;;;;;5;36014038;41266686;-90
2021/07/18 20:12:34;;;;;;;;;;;19.20;99.90;;;;;;5;36013581;41266566;-90
2021/07/18 20:15:55;;;;;;;;;;;19.10;99.90;;;;;;5;36014343;42017640;-89
2021/07/18 20:19:10;;;;;;;;;;;19.00;99.90;;;;;;5;36013759;41267370;-90
2021/07/18 20:22:27;;;;;;;;;;;19.00;99.90;;;;;;5;36015078;41265933;-89
2021/07/18 20:25:47;;;;;;;;;;;18.90;99.90;;;;;;5;36014417;41267970;-88
2021/07/18 20:29:06;;;;;;;;;;;18.80;99.90;;;;;;5;36016465;41266718;-89
2021/07/18 20:32:20;;;;;;;;;;;18.70;99.90;;;;;;5;36014847;41267699;-89
2021/07/18 20:36:15;;;;;;;;;;;18.70;99.90;;;;;;5;36013921;41266727;-90
2021/07/18 20:39:34;;;;;;;;;;;18.70;99.90;;;;;;5;36015289;41266846;-89
2021/07/18 20:42:54;;;;;;;;;;;18.70;99.90;;;;;;5;36014166;41266926;-89
2021/07/18 20:46:08;;;;;;;;;;;18.70;99.90;;;;;;5;36014857;41268441;-90
2021/07/18 20:49:26;;;;;;;;;;;18.70;99.90;;;;;;5;36014396;42017085;-88
2021/07/18 20:52:46;;;;;;;;;;;18.70;99.90;;;;;;5;36014167;41266335;-90
2021/07/18 20:56:06;;;;;;;;;;;18.70;99.90;;;;;;5;36015613;41267633;-89
2021/07/18 20:59:20;;;;;;;;;;;18.60;99.90;;;;;;5;36015041;41266929;-89
2021/07/18 21:02:38;;;;;;;;;;;18.50;99.90;;;;;;5;36013693;41266707;-88
2021/07/18 21:05:57;;;;;;;;;;;18.50;99.90;;;;;;5;36015075;41266720;-88
2021/07/18 21:09:17;;;;;;;;;;;18.50;99.90;;;;;;5;36013751;41266783;-88
2021/07/18 21:12:31;;;;;;;;;;;18.40;99.90;;;;;;5;36014856;41267055;-88
2021/07/18 21:15:48;;;;;;;;;;;18.30;99.90;;;;;;5;36013392;41266915;-89
2021/07/18 21:19:08;;;;;;;;;;;18.30;99.90;;;;;;5;36015135;41266597;-89
2021/07/18 21:22:29;;;;;;;;;;;18.30;99.90;;;;;;5;36013939;42017003;-88
2021/07/18 21:25:43;;;;;;;;;;;18.20;99.90;;;;;;5;36014359;41267065;-84
2021/07/18 21:29:01;;;;;;;;;;;18.10;99.90;;;;;;5;36014874;41266695;-89
2021/07/18 21:32:20;;;;;;;;;;;18.10;99.90;;;;;;5;36015332;41266478;-90
2021/07/18 21:35:39;;;;;;;;;;;18.00;99.90;;;;;;5;36013744;41267333;-89
2021/07/18 21:38:54;;;;;;;;;;;18.00;99.90;;;;;;5;36014324;41265832;-89
2021/07/18 21:42:11;;;;;;;;;;;17.90;99.90;;;;;;5;36015454;41266845;-89
2021/07/18 21:45:30;;;;;;;;;;;17.90;99.90;;;;;;5;36014121;41266794;-89
2021/07/18 21:48:50;;;;;;;;;;;17.90;99.90;;;;;;5;36015140;41267225;-87
2021/07/18 21:52:04;;;;;;;;;;;17.80;99.90;;;;;;5;36015173;41266722;-89
2021/07/18 21:55:23;;;;;;;;;;;17.80;99.90;;;;;;5;36014954;42017825;-89
2021/07/18 21:58:42;;;;;;;;;;;17.70;99.90;;;;;;5;36013981;41267164;-88
